createdAt,value
2023-10-08T00:00:47.153Z,1.00
2023-10-08T00:01:23.022Z,1.00
2023-10-08T00:01:59.155Z,1.00
2023-10-08T00:02:34.347Z,1.00
2023-10-08T00:03:12.613Z,1.00
2023-10-08T00:03:55.384Z,1.00
2023-10-08T00:04:30.720Z,1.00
2023-10-08T00:05:07.051Z,1.00
2023-10-08T00:05:42.995Z,1.00
2023-10-08T00:06:22.094Z,1.00
2023-10-08T00:06:57.437Z,1.00
2023-10-08T00:07:31.064Z,1.00
2023-10-08T00:08:07.347Z,1.00
2023-10-08T00:08:42.924Z,1.00
2023-10-08T00:09:18.018Z,1.00
2023-10-08T00:09:54.176Z,1.00
2023-10-08T00:10:29.686Z,1.00
2023-10-08T00:11:11.822Z,1.00
2023-10-08T00:11:52.738Z,1.00
2023-10-08T00:12:30.557Z,1.00
2023-10-08T00:13:08.898Z,1.00
2023-10-08T00:13:43.775Z,1.00
2023-10-08T00:14:23.697Z,1.00
2023-10-08T00:14:56.997Z,1.00
2023-10-08T00:15:33.402Z,1.00
2023-10-08T00:16:12.840Z,1.00
2023-10-08T00:16:51.772Z,1.00
2023-10-08T00:17:27.615Z,1.00
2023-10-08T00:18:02.650Z,1.00
2023-10-08T00:18:38.548Z,1.00
2023-10-08T00:19:16.282Z,1.00
2023-10-08T00:19:54.456Z,1.00
2023-10-08T00:20:36.796Z,1.00
2023-10-08T00:21:12.428Z,1.00
2023-10-08T00:21:46.815Z,1.00
2023-10-08T00:22:21.364Z,1.00
2023-10-08T00:22:57.135Z,1.00
2023-10-08T00:23:32.702Z,1.00
2023-10-08T00:24:10.457Z,1.00
2023-10-08T00:25:17.638Z,1.00
2023-10-08T00:25:56.842Z,1.00
2023-10-08T00:26:32.495Z,1.00
2023-10-08T00:27:08.000Z,1.00
2023-10-08T00:27:43.438Z,1.00
2023-10-08T00:28:19.614Z,1.00
2023-10-08T00:28:54.658Z,1.00
2023-10-08T00:29:28.542Z,1.00
2023-10-08T00:30:39.935Z,1.00
2023-10-08T00:31:18.776Z,1.00
2023-10-08T00:31:58.326Z,1.00
2023-10-08T00:34:28.834Z,1.00
2023-10-08T00:35:02.786Z,1.00
2023-10-08T00:35:43.394Z,1.00
2023-10-08T00:36:20.089Z,1.00
2023-10-08T00:36:55.085Z,2.00
2023-10-08T00:37:30.995Z,2.00
2023-10-08T00:38:16.039Z,2.67
2023-10-08T00:38:51.943Z,3.67
2023-10-08T00:39:26.331Z,4.33
2023-10-08T00:40:39.787Z,6.00
2023-10-08T00:41:16.434Z,7.00
2023-10-08T00:42:00.328Z,7.67
2023-10-08T00:42:37.240Z,8.00
2023-10-08T00:43:12.027Z,9.00
2023-10-08T00:43:47.240Z,9.00
2023-10-08T00:44:30.936Z,9.00
2023-10-08T00:45:06.613Z,9.33
2023-10-08T00:45:45.120Z,10.00
2023-10-08T00:46:20.930Z,10.00
2023-10-08T00:47:28.198Z,10.00
2023-10-08T00:48:04.208Z,10.00
2023-10-08T00:48:40.427Z,9.00
2023-10-08T00:49:27.445Z,9.00
2023-10-08T00:50:07.938Z,9.00
2023-10-08T00:50:50.557Z,9.00
2023-10-08T00:51:33.273Z,9.00
2023-10-08T00:53:40.495Z,8.00
2023-10-08T00:54:52.831Z,7.33
2023-10-08T00:55:31.609Z,7.00
2023-10-08T00:56:14.699Z,7.00
2023-10-08T00:56:58.056Z,6.67
2023-10-08T00:57:39.980Z,6.00
2023-10-08T00:58:25.674Z,6.00
2023-10-08T00:59:03.243Z,5.67
2023-10-08T00:59:46.186Z,5.00
2023-10-08T01:00:33.117Z,5.00
2023-10-08T01:01:11.945Z,5.00
2023-10-08T01:02:06.651Z,4.67
2023-10-08T01:02:48.210Z,4.00
2023-10-08T01:03:23.864Z,4.00
2023-10-08T01:03:57.829Z,4.00
2023-10-08T01:04:35.222Z,4.00
2023-10-08T01:05:13.045Z,4.00
2023-10-08T01:05:49.842Z,3.00
2023-10-08T01:06:31.151Z,3.00
2023-10-08T01:07:16.928Z,3.00
2023-10-08T01:07:53.422Z,3.00
2023-10-08T01:08:38.464Z,3.00
2023-10-08T01:09:28.498Z,3.00
2023-10-08T01:10:11.801Z,3.00
2023-10-08T01:10:48.592Z,2.33
2023-10-08T01:11:47.818Z,2.00
2023-10-08T01:12:35.281Z,2.00
2023-10-08T01:13:21.810Z,2.00
2023-10-08T01:13:56.590Z,2.00
2023-10-08T01:14:34.160Z,2.00
2023-10-08T01:15:21.039Z,2.00
2023-10-08T01:15:56.637Z,2.00
2023-10-08T01:16:35.747Z,2.00
2023-10-08T01:17:16.094Z,2.00
2023-10-08T01:18:02.195Z,2.00
2023-10-08T01:18:38.773Z,2.00
2023-10-08T01:19:15.695Z,2.00
2023-10-08T01:19:56.458Z,2.00
2023-10-08T01:20:37.866Z,2.00
2023-10-08T01:21:19.445Z,2.00
2023-10-08T01:21:54.625Z,2.00
2023-10-08T01:22:31.483Z,2.00
2023-10-08T01:23:15.648Z,1.00
2023-10-08T01:23:51.371Z,1.00
2023-10-08T01:24:28.897Z,1.00
2023-10-08T01:25:04.327Z,1.00
2023-10-08T01:25:40.055Z,1.00
2023-10-08T01:26:24.393Z,1.00
2023-10-08T01:26:59.925Z,1.00
2023-10-08T01:27:36.142Z,1.00
2023-10-08T01:28:38.459Z,1.00
2023-10-08T01:29:21.455Z,1.00
2023-10-08T01:29:57.226Z,1.00
2023-10-08T01:30:37.463Z,1.00
2023-10-08T01:31:14.339Z,1.00
2023-10-08T01:31:54.542Z,1.00
2023-10-08T01:32:28.132Z,1.00
2023-10-08T01:33:04.967Z,1.00
2023-10-08T01:33:48.092Z,1.00
2023-10-08T01:34:28.841Z,1.00
2023-10-08T01:35:05.329Z,1.00
2023-10-08T01:36:15.019Z,1.00
2023-10-08T01:36:50.693Z,1.00
2023-10-08T01:37:25.590Z,1.00
2023-10-08T01:38:01.505Z,1.00
2023-10-08T01:38:36.901Z,1.00
2023-10-08T01:39:16.650Z,1.00
2023-10-08T01:39:51.830Z,1.00
2023-10-08T01:40:26.244Z,1.00
2023-10-08T01:41:34.979Z,1.00
2023-10-08T01:42:21.771Z,1.00
2023-10-08T01:42:55.757Z,1.00
2023-10-08T01:43:34.705Z,1.00
2023-10-08T01:44:10.096Z,1.00
2023-10-08T01:44:56.789Z,1.00
2023-10-08T01:45:31.756Z,1.00
2023-10-08T01:46:06.217Z,1.00
2023-10-08T01:46:42.082Z,1.00
2023-10-08T01:47:18.332Z,1.00
2023-10-08T01:47:56.972Z,1.00
2023-10-08T01:48:38.956Z,1.00
2023-10-08T01:49:18.165Z,1.00
2023-10-08T01:50:02.144Z,1.00
2023-10-08T01:50:39.536Z,1.00
2023-10-08T01:51:26.237Z,1.00
2023-10-08T01:52:08.551Z,1.00
2023-10-08T01:52:47.908Z,1.00
2023-10-08T01:53:21.990Z,1.00
2023-10-08T01:53:59.827Z,1.00
2023-10-08T01:54:39.390Z,1.00
2023-10-08T01:55:19.315Z,1.00
2023-10-08T01:55:55.429Z,1.00
2023-10-08T01:56:31.581Z,1.00
2023-10-08T01:57:07.438Z,1.00
2023-10-08T01:57:40.995Z,1.00
2023-10-08T01:58:18.241Z,1.00
2023-10-08T01:58:53.708Z,1.00
2023-10-08T01:59:33.176Z,1.00
2023-10-08T02:00:10.875Z,1.00
2023-10-08T02:01:58.685Z,1.00
2023-10-08T02:02:32.897Z,1.00
2023-10-08T02:03:11.244Z,1.00
2023-10-08T02:03:46.710Z,1.00
2023-10-08T02:04:23.270Z,1.00
2023-10-08T02:04:58.868Z,1.00
2023-10-08T02:05:35.591Z,1.00
2023-10-08T02:06:10.826Z,1.00
2023-10-08T02:06:47.339Z,1.00
2023-10-08T02:07:22.984Z,1.00
2023-10-08T02:08:00.384Z,1.00
2023-10-08T02:08:38.813Z,1.00
2023-10-08T02:09:14.963Z,1.00
2023-10-08T02:09:49.591Z,1.00
2023-10-08T02:10:23.915Z,1.00
2023-10-08T02:10:58.167Z,1.00
2023-10-08T02:11:33.503Z,1.00
2023-10-08T02:12:09.671Z,1.00
2023-10-08T02:12:46.238Z,1.00
2023-10-08T02:13:21.856Z,1.00
2023-10-08T02:13:58.534Z,1.00
2023-10-08T02:14:36.987Z,1.00
2023-10-08T02:15:17.212Z,1.00
2023-10-08T02:15:53.318Z,1.00
2023-10-08T02:16:29.261Z,1.00
2023-10-08T02:17:03.192Z,1.00
2023-10-08T02:17:40.043Z,1.00
2023-10-08T02:18:15.923Z,1.00
2023-10-08T02:18:53.670Z,1.00
2023-10-08T02:19:30.009Z,1.00
2023-10-08T02:20:06.738Z,1.00
2023-10-08T02:20:43.135Z,1.00
2023-10-08T02:21:19.387Z,1.00
2023-10-08T02:21:56.402Z,1.00
2023-10-08T02:22:31.766Z,1.00
2023-10-08T02:23:39.749Z,1.00
2023-10-08T02:24:14.896Z,1.00
2023-10-08T02:24:52.020Z,1.00
2023-10-08T02:25:26.406Z,1.00
2023-10-08T02:26:02.137Z,1.00
2023-10-08T02:26:37.881Z,1.00
2023-10-08T02:27:12.197Z,1.00
2023-10-08T02:27:49.257Z,1.00
2023-10-08T02:28:25.745Z,1.00
2023-10-08T02:29:01.222Z,1.00
2023-10-08T02:29:36.902Z,1.00
2023-10-08T02:30:13.811Z,1.00
2023-10-08T02:30:47.844Z,1.00
2023-10-08T02:31:21.913Z,1.00
2023-10-08T02:31:56.085Z,1.00
2023-10-08T02:32:30.808Z,1.00
2023-10-08T02:34:09.171Z,1.00
2023-10-08T02:35:17.807Z,1.00
2023-10-08T02:35:54.907Z,1.00
2023-10-08T02:36:28.832Z,1.00
2023-10-08T02:37:05.065Z,1.00
2023-10-08T02:37:41.981Z,1.00
2023-10-08T02:38:19.827Z,1.00
2023-10-08T02:38:57.895Z,1.00
2023-10-08T02:39:33.693Z,1.00
2023-10-08T02:40:36.008Z,1.00
2023-10-08T02:41:11.975Z,1.00
2023-10-08T02:41:47.581Z,1.00
2023-10-08T02:42:23.540Z,1.00
2023-10-08T02:43:02.012Z,1.00
2023-10-08T02:43:38.050Z,1.00
2023-10-08T02:44:15.629Z,1.00
2023-10-08T02:44:52.537Z,1.00
2023-10-08T02:45:29.711Z,1.00
2023-10-08T02:46:16.424Z,1.00
2023-10-08T02:46:50.662Z,1.00
2023-10-08T02:47:25.908Z,1.00
2023-10-08T02:48:00.116Z,1.00
2023-10-08T02:48:35.848Z,1.00
2023-10-08T02:49:13.331Z,1.00
2023-10-08T02:49:49.630Z,1.00
2023-10-08T02:50:24.737Z,1.00
2023-10-08T02:51:08.247Z,1.00
2023-10-08T02:51:46.141Z,1.00
2023-10-08T02:52:19.936Z,1.00
2023-10-08T02:52:53.746Z,1.00
2023-10-08T02:53:31.075Z,1.00
2023-10-08T02:54:06.967Z,1.00
2023-10-08T02:54:40.917Z,1.00
2023-10-08T02:55:26.987Z,1.00
2023-10-08T02:56:08.750Z,1.00
2023-10-08T02:56:56.748Z,1.00
2023-10-08T02:57:33.265Z,1.00
2023-10-08T02:58:12.687Z,1.00
2023-10-08T02:58:48.985Z,1.00
2023-10-08T02:59:23.967Z,1.00
2023-10-08T02:59:57.911Z,1.00
2023-10-08T03:00:35.408Z,1.00
2023-10-08T03:01:13.800Z,1.00
2023-10-08T03:01:57.451Z,1.00
2023-10-08T03:02:31.069Z,1.00
2023-10-08T03:03:17.186Z,1.00
2023-10-08T03:04:00.956Z,1.00
2023-10-08T03:04:38.200Z,1.00
2023-10-08T03:05:14.814Z,1.00
2023-10-08T03:05:52.957Z,1.00
2023-10-08T03:06:26.822Z,1.00
2023-10-08T03:07:00.656Z,1.00
2023-10-08T03:07:36.984Z,1.00
2023-10-08T03:08:12.386Z,1.00
2023-10-08T03:08:49.194Z,1.00
2023-10-08T03:09:26.553Z,1.00
2023-10-08T03:10:05.512Z,1.00
2023-10-08T03:10:42.923Z,1.00
2023-10-08T03:11:19.445Z,1.00
2023-10-08T03:11:54.985Z,1.00
2023-10-08T03:12:33.663Z,1.00
2023-10-08T03:13:07.769Z,1.00
2023-10-08T03:13:42.891Z,1.00
2023-10-08T03:14:23.224Z,1.00
2023-10-08T03:15:02.938Z,1.00
2023-10-08T03:15:41.677Z,1.00
2023-10-08T03:16:16.791Z,1.00
2023-10-08T03:16:59.467Z,1.00
2023-10-08T03:17:39.124Z,1.00
2023-10-08T03:18:16.274Z,1.00
2023-10-08T03:18:51.708Z,1.00
2023-10-08T03:19:25.981Z,1.00
2023-10-08T03:20:19.888Z,1.00
2023-10-08T03:20:53.770Z,1.00
2023-10-08T03:21:45.280Z,1.00
2023-10-08T03:22:20.777Z,1.00
2023-10-08T03:22:56.193Z,1.00
2023-10-08T03:23:36.389Z,1.00
2023-10-08T03:24:25.039Z,1.00
2023-10-08T03:24:59.699Z,1.00
2023-10-08T03:25:42.980Z,1.00
2023-10-08T03:28:23.064Z,1.00
2023-10-08T03:28:59.129Z,1.00
2023-10-08T03:29:44.352Z,1.00
2023-10-08T03:30:19.521Z,1.00
2023-10-08T03:31:03.982Z,1.67
2023-10-08T03:31:48.290Z,2.00
2023-10-08T03:32:28.075Z,2.33
2023-10-08T03:33:11.936Z,3.00
2023-10-08T03:33:50.648Z,3.67
2023-10-08T03:34:29.328Z,4.00
2023-10-08T03:35:05.666Z,5.00
2023-10-08T03:35:44.180Z,5.00
2023-10-08T03:36:22.817Z,6.00
2023-10-08T03:37:07.399Z,6.00
2023-10-08T03:37:46.906Z,6.67
2023-10-08T03:38:29.923Z,7.00
2023-10-08T03:39:14.521Z,7.00
2023-10-08T03:39:53.247Z,7.00
2023-10-08T03:40:43.855Z,7.00
2023-10-08T03:41:29.834Z,7.00
2023-10-08T03:42:09.642Z,7.00
2023-10-08T03:42:45.535Z,7.00
2023-10-08T03:43:35.350Z,7.00
2023-10-08T03:44:18.248Z,7.00
2023-10-08T03:45:43.529Z,7.00
2023-10-08T03:47:13.180Z,6.00
2023-10-08T03:47:48.329Z,6.00
2023-10-08T03:48:23.780Z,6.00
2023-10-08T03:49:01.947Z,6.00
2023-10-08T03:49:37.648Z,6.00
2023-10-08T03:50:11.502Z,5.00
2023-10-08T03:50:46.685Z,5.00
2023-10-08T03:51:22.242Z,5.00
2023-10-08T03:51:58.800Z,5.00
2023-10-08T03:52:32.863Z,5.00
2023-10-08T03:53:10.397Z,5.00
2023-10-08T03:54:00.702Z,4.00
2023-10-08T03:55:22.968Z,4.00
2023-10-08T03:56:02.392Z,4.00
2023-10-08T03:57:20.178Z,4.00
2023-10-08T03:57:58.669Z,3.00
2023-10-08T03:59:14.696Z,3.00
2023-10-08T03:59:50.470Z,3.00
2023-10-08T04:00:33.573Z,3.00
2023-10-08T04:01:11.304Z,3.00
2023-10-08T04:01:45.350Z,3.00
2023-10-08T04:02:46.886Z,3.00
2023-10-08T04:03:42.541Z,2.67
2023-10-08T04:04:16.915Z,2.00
2023-10-08T04:04:52.780Z,2.00
2023-10-08T04:05:34.259Z,2.00
2023-10-08T04:06:23.620Z,2.00
2023-10-08T04:07:17.562Z,2.00
2023-10-08T04:08:44.014Z,2.00
2023-10-08T04:09:25.242Z,2.00
2023-10-08T04:10:11.467Z,2.00
2023-10-08T04:11:05.962Z,2.00
2023-10-08T04:12:05.178Z,2.00
2023-10-08T04:12:52.093Z,2.00
2023-10-08T04:13:25.912Z,2.00
2023-10-08T04:14:03.804Z,2.00
2023-10-08T04:14:39.045Z,2.00
2023-10-08T04:15:19.534Z,2.00
2023-10-08T04:15:54.782Z,1.33
2023-10-08T04:16:29.289Z,1.00
2023-10-08T04:17:04.543Z,1.00
2023-10-08T04:17:46.817Z,1.00
2023-10-08T04:18:22.120Z,1.00
2023-10-08T04:18:58.252Z,1.00
2023-10-08T04:19:31.771Z,1.00
2023-10-08T04:20:19.430Z,1.00
2023-10-08T04:21:06.800Z,1.00
2023-10-08T04:21:44.234Z,1.00
2023-10-08T04:22:52.819Z,1.00
2023-10-08T04:23:26.642Z,1.00
2023-10-08T04:23:59.645Z,1.00
2023-10-08T04:24:36.451Z,1.00
2023-10-08T04:25:11.475Z,1.00
2023-10-08T04:25:56.103Z,1.00
2023-10-08T04:26:33.850Z,1.00
2023-10-08T04:27:10.981Z,1.00
2023-10-08T04:27:49.494Z,1.00
2023-10-08T04:28:29.969Z,1.00
2023-10-08T04:29:08.277Z,1.00
2023-10-08T04:29:42.056Z,1.00
2023-10-08T04:30:16.483Z,1.00
2023-10-08T04:32:09.377Z,1.00
2023-10-08T04:32:44.734Z,1.00
2023-10-08T04:33:20.898Z,1.00
2023-10-08T04:34:02.030Z,1.00
2023-10-08T04:34:38.070Z,1.00
2023-10-08T04:35:16.868Z,1.00
2023-10-08T04:36:23.638Z,1.00
2023-10-08T04:37:02.525Z,1.00
2023-10-08T04:37:42.509Z,1.00
2023-10-08T04:38:52.477Z,1.00
2023-10-08T04:39:34.057Z,1.00
2023-10-08T04:40:17.504Z,1.00
2023-10-08T04:41:03.385Z,1.00
2023-10-08T04:41:44.030Z,1.00
2023-10-08T04:42:27.721Z,1.00
2023-10-08T04:43:03.832Z,1.00
2023-10-08T04:43:40.150Z,1.00
2023-10-08T04:44:17.022Z,1.00
2023-10-08T04:44:53.792Z,1.00
2023-10-08T04:45:35.163Z,1.00
2023-10-08T04:46:47.086Z,1.00
2023-10-08T04:47:55.610Z,1.00
2023-10-08T04:48:34.484Z,1.00
2023-10-08T04:49:27.761Z,1.00
2023-10-08T04:50:07.830Z,1.00
2023-10-08T04:50:46.106Z,1.00
2023-10-08T04:51:24.182Z,1.00
2023-10-08T04:52:15.602Z,1.00
2023-10-08T04:52:59.801Z,1.00
2023-10-08T04:53:38.413Z,1.00
2023-10-08T04:54:19.966Z,1.00
2023-10-08T04:54:55.501Z,1.00
2023-10-08T04:55:31.358Z,1.00
2023-10-08T04:56:09.194Z,1.00
2023-10-08T04:56:45.453Z,1.00
2023-10-08T04:57:23.333Z,1.00
2023-10-08T04:57:59.604Z,1.00
2023-10-08T04:58:41.623Z,1.00
2023-10-08T04:59:15.826Z,1.00
2023-10-08T04:59:52.578Z,1.00
2023-10-08T05:00:45.208Z,1.00
2023-10-08T05:02:10.876Z,1.00
2023-10-08T05:02:51.799Z,1.00
2023-10-08T05:03:35.676Z,1.00
2023-10-08T05:04:25.855Z,1.00
2023-10-08T05:05:12.810Z,1.00
2023-10-08T05:05:57.130Z,1.00
2023-10-08T05:07:22.567Z,1.00
2023-10-08T05:08:18.658Z,1.00
2023-10-08T05:09:24.705Z,1.00
2023-10-08T05:10:09.404Z,1.00
2023-10-08T05:11:02.482Z,1.00
2023-10-08T05:11:55.241Z,1.00
2023-10-08T05:12:47.202Z,1.00
2023-10-08T05:14:18.699Z,1.00
2023-10-08T05:15:11.035Z,1.00
2023-10-08T05:16:22.660Z,1.00
2023-10-08T05:17:16.903Z,1.00
2023-10-08T05:17:53.246Z,1.00
2023-10-08T05:18:47.086Z,1.00
2023-10-08T05:19:39.098Z,1.00
2023-10-08T05:20:33.272Z,1.00
2023-10-08T05:21:27.267Z,1.00
2023-10-08T05:22:19.654Z,1.00
2023-10-08T05:23:12.732Z,1.00
2023-10-08T05:24:29.170Z,1.00
2023-10-08T05:25:09.546Z,1.00
2023-10-08T05:26:11.923Z,1.00
2023-10-08T05:26:51.024Z,1.00
2023-10-08T05:27:58.257Z,1.00
2023-10-08T05:28:59.331Z,1.00
2023-10-08T05:30:02.273Z,1.00
2023-10-08T05:31:19.438Z,1.00
2023-10-08T05:32:14.742Z,1.00
2023-10-08T05:33:06.951Z,1.00
2023-10-08T05:34:25.008Z,1.00
2023-10-08T05:35:20.994Z,1.00
2023-10-08T05:36:04.390Z,1.00
2023-10-08T05:36:52.805Z,1.00
2023-10-08T05:37:43.311Z,1.00
2023-10-08T05:39:02.266Z,1.00
2023-10-08T05:40:22.848Z,1.00
2023-10-08T05:41:00.066Z,1.00
2023-10-08T05:41:53.078Z,1.00
2023-10-08T05:42:31.116Z,1.00
2023-10-08T05:43:24.113Z,1.00
2023-10-08T05:44:41.599Z,1.00
2023-10-08T05:46:09.750Z,1.00
2023-10-08T05:46:56.481Z,1.00
2023-10-08T05:47:30.169Z,1.00
2023-10-08T05:48:14.770Z,1.00
2023-10-08T05:48:48.040Z,1.00
2023-10-08T05:49:34.525Z,1.00
2023-10-08T05:50:40.028Z,1.00
2023-10-08T05:51:25.207Z,1.00
2023-10-08T05:52:03.675Z,1.00
2023-10-08T05:52:56.192Z,1.00
2023-10-08T05:53:45.085Z,1.00
2023-10-08T05:54:31.432Z,1.00
2023-10-08T05:55:48.943Z,1.00
2023-10-08T05:56:30.619Z,1.00
2023-10-08T05:57:12.443Z,1.00
2023-10-08T05:57:53.645Z,1.00
2023-10-08T05:59:15.910Z,1.00
2023-10-08T05:59:59.029Z,1.00
2023-10-08T06:00:34.059Z,1.00
2023-10-08T06:01:27.752Z,1.00
2023-10-08T06:02:09.091Z,1.00
2023-10-08T06:03:58.281Z,1.00
2023-10-08T06:04:54.821Z,1.00
2023-10-08T06:05:34.457Z,1.00
2023-10-08T06:06:12.482Z,1.00
2023-10-08T06:06:58.975Z,1.00
2023-10-08T06:07:49.057Z,1.00
2023-10-08T06:08:44.545Z,1.00
2023-10-08T06:09:22.957Z,1.00
2023-10-08T06:10:31.871Z,1.00
2023-10-08T06:11:19.181Z,1.00
2023-10-08T06:12:08.166Z,1.00
2023-10-08T06:12:51.242Z,1.00
2023-10-08T06:14:04.374Z,1.00
2023-10-08T06:15:13.542Z,1.00
2023-10-08T06:16:07.065Z,1.00
2023-10-08T06:16:45.049Z,1.00
2023-10-08T06:17:37.094Z,1.00
2023-10-08T06:18:16.361Z,1.00
2023-10-08T06:18:52.087Z,1.00
2023-10-08T06:19:27.561Z,1.00
2023-10-08T06:20:12.117Z,1.00
2023-10-08T06:20:48.716Z,1.00
2023-10-08T06:21:22.591Z,1.00
2023-10-08T06:22:31.643Z,1.00
2023-10-08T06:23:38.642Z,1.00
2023-10-08T06:24:45.937Z,1.00
2023-10-08T06:25:24.615Z,1.00
2023-10-08T06:26:12.042Z,1.00
2023-10-08T06:26:50.311Z,1.00
2023-10-08T06:27:26.710Z,1.00
2023-10-08T06:28:00.669Z,1.00
2023-10-08T06:28:36.405Z,1.00
2023-10-08T06:29:20.219Z,1.00
2023-10-08T06:29:56.463Z,1.00
2023-10-08T06:30:36.619Z,1.00
2023-10-08T06:31:17.678Z,1.00
2023-10-08T06:32:03.442Z,1.00
2023-10-08T06:32:38.950Z,1.00
2023-10-08T06:33:12.799Z,1.00
2023-10-08T06:33:49.998Z,1.00
2023-10-08T06:34:29.267Z,1.00
2023-10-08T06:35:04.879Z,1.00
2023-10-08T06:35:38.880Z,1.00
2023-10-08T06:36:15.005Z,1.00
2023-10-08T06:36:57.160Z,1.00
2023-10-08T06:38:08.769Z,1.00
2023-10-08T06:38:45.368Z,1.00
2023-10-08T06:39:26.999Z,1.00
2023-10-08T06:40:02.598Z,1.00
2023-10-08T06:40:38.629Z,1.00
2023-10-08T06:41:14.541Z,1.00
2023-10-08T06:41:58.495Z,1.00
2023-10-08T06:42:36.543Z,1.00
2023-10-08T06:43:25.979Z,1.00
2023-10-08T06:44:32.898Z,1.00
2023-10-08T06:45:10.891Z,1.00
2023-10-08T06:45:48.411Z,1.00
2023-10-08T06:46:22.806Z,1.00
2023-10-08T06:46:58.157Z,1.00
2023-10-08T06:47:31.997Z,1.00
2023-10-08T06:48:05.302Z,1.00
2023-10-08T06:48:39.529Z,1.00
2023-10-08T06:49:15.603Z,1.00
2023-10-08T06:49:53.180Z,1.00
2023-10-08T06:50:28.634Z,1.00
2023-10-08T06:51:14.674Z,1.00
2023-10-08T06:51:49.695Z,1.00
2023-10-08T06:52:24.981Z,1.00
2023-10-08T06:52:58.731Z,1.00
2023-10-08T06:53:35.484Z,1.00
2023-10-08T06:54:15.870Z,1.00
2023-10-08T06:54:54.506Z,1.00
2023-10-08T06:55:29.654Z,1.00
2023-10-08T06:56:08.947Z,1.00
2023-10-08T06:56:48.158Z,1.00
2023-10-08T06:57:28.186Z,1.00
2023-10-08T06:58:09.251Z,1.00
2023-10-08T06:58:54.271Z,1.00
2023-10-08T07:00:04.178Z,1.00
2023-10-08T07:00:41.510Z,1.00
2023-10-08T07:01:22.765Z,1.00
2023-10-08T07:01:55.794Z,1.00
2023-10-08T07:02:29.907Z,1.00
2023-10-08T07:03:07.390Z,1.00
2023-10-08T07:03:58.070Z,1.00
2023-10-08T07:04:30.847Z,1.00
2023-10-08T07:05:42.700Z,1.00
2023-10-08T07:06:32.836Z,1.00
2023-10-08T07:07:10.839Z,1.00
2023-10-08T07:07:46.604Z,1.00
2023-10-08T07:08:24.675Z,1.00
2023-10-08T07:09:00.715Z,1.00
2023-10-08T07:10:05.810Z,1.00
2023-10-08T07:11:13.161Z,1.00
2023-10-08T07:11:46.986Z,1.00
2023-10-08T07:12:26.048Z,1.00
2023-10-08T07:13:04.212Z,1.00
2023-10-08T07:13:38.690Z,1.00
2023-10-08T07:14:15.128Z,1.00
2023-10-08T07:14:48.004Z,1.00
2023-10-08T07:15:54.445Z,1.00
2023-10-08T07:16:29.628Z,1.00
2023-10-08T07:17:09.557Z,1.00
2023-10-08T07:17:44.307Z,1.00
2023-10-08T07:18:28.862Z,1.00
2023-10-08T07:19:05.053Z,1.00
2023-10-08T07:19:42.081Z,1.00
2023-10-08T07:20:22.751Z,1.00
2023-10-08T07:21:02.302Z,1.00
2023-10-08T07:21:58.955Z,1.00
2023-10-08T07:22:35.008Z,1.00
2023-10-08T07:23:13.868Z,1.00
2023-10-08T07:24:23.083Z,1.00
2023-10-08T07:24:58.744Z,1.00
2023-10-08T07:25:38.318Z,1.00
2023-10-08T07:26:13.133Z,1.00
2023-10-08T07:27:41.942Z,1.00
2023-10-08T07:28:20.854Z,1.00
2023-10-08T07:28:54.933Z,1.00
2023-10-08T07:30:33.821Z,1.00
2023-10-08T07:31:18.855Z,1.00
2023-10-08T07:31:54.251Z,1.00
2023-10-08T07:32:32.079Z,1.00
2023-10-08T07:33:05.412Z,1.00
2023-10-08T07:34:19.438Z,1.00
2023-10-08T07:34:58.981Z,1.00
2023-10-08T07:36:13.814Z,1.00
2023-10-08T07:36:48.707Z,1.00
2023-10-08T07:37:21.623Z,1.00
2023-10-08T07:37:56.187Z,1.00
2023-10-08T07:38:31.453Z,1.00
2023-10-08T07:39:09.450Z,1.00
2023-10-08T07:39:51.200Z,1.00
2023-10-08T07:40:29.366Z,1.00
2023-10-08T07:41:02.511Z,1.00
2023-10-08T07:41:35.154Z,1.00
2023-10-08T07:42:41.499Z,1.00
2023-10-08T07:43:14.006Z,1.00
2023-10-08T07:44:12.560Z,1.00
2023-10-08T07:44:45.408Z,1.00
2023-10-08T07:45:23.652Z,1.00
2023-10-08T07:45:55.682Z,1.00
2023-10-08T07:46:28.121Z,1.00
2023-10-08T07:47:01.073Z,1.00
2023-10-08T07:48:12.301Z,1.00
2023-10-08T07:48:44.977Z,1.00
2023-10-08T07:49:17.031Z,1.00
2023-10-08T07:49:49.039Z,1.00
2023-10-08T07:50:21.456Z,1.00
2023-10-08T07:51:26.813Z,1.00
2023-10-08T07:52:02.291Z,1.00
2023-10-08T07:53:07.442Z,1.00
2023-10-08T07:53:39.397Z,1.00
2023-10-08T07:54:17.732Z,1.00
2023-10-08T07:55:28.614Z,1.00
2023-10-08T07:56:01.686Z,1.00
2023-10-08T07:56:33.749Z,1.00
2023-10-08T07:57:14.151Z,1.00
2023-10-08T07:58:23.317Z,1.00
2023-10-08T07:58:58.078Z,1.00
2023-10-08T07:59:30.287Z,1.00
2023-10-08T08:00:24.953Z,1.00
2023-10-08T08:01:35.374Z,1.00
2023-10-08T08:02:13.982Z,1.00
2023-10-08T08:02:47.164Z,1.00
2023-10-08T08:03:21.875Z,1.00
2023-10-08T08:04:34.702Z,1.00
2023-10-08T08:05:08.278Z,1.00
2023-10-08T08:05:50.356Z,1.00
2023-10-08T08:06:35.190Z,1.00
2023-10-08T08:08:42.543Z,1.00
2023-10-08T08:09:21.014Z,1.00
2023-10-08T08:10:01.153Z,1.00
2023-10-08T08:10:40.131Z,1.00
2023-10-08T08:11:18.923Z,1.00
2023-10-08T08:11:51.296Z,1.00
2023-10-08T08:12:26.824Z,1.00
2023-10-08T08:13:02.990Z,1.00
2023-10-08T08:13:48.236Z,1.00
2023-10-08T08:14:55.841Z,1.00
2023-10-08T08:15:30.829Z,1.00
2023-10-08T08:17:24.088Z,1.00
2023-10-08T08:18:35.910Z,1.00
2023-10-08T08:19:11.407Z,1.00
2023-10-08T08:19:45.970Z,1.00
2023-10-08T08:20:52.082Z,1.00
2023-10-08T08:21:27.087Z,1.00
2023-10-08T08:22:04.241Z,1.00
2023-10-08T08:22:42.761Z,1.00
2023-10-08T08:23:18.109Z,1.00
2023-10-08T08:23:51.640Z,1.00
2023-10-08T08:24:46.261Z,1.00
2023-10-08T08:25:27.948Z,1.00
2023-10-08T08:27:04.353Z,1.00
2023-10-08T08:27:42.849Z,1.00
2023-10-08T08:28:33.413Z,1.00
2023-10-08T08:30:24.299Z,1.00
2023-10-08T08:30:59.099Z,1.00
2023-10-08T08:31:37.094Z,1.00
2023-10-08T08:32:09.401Z,1.00
2023-10-08T08:33:23.325Z,1.00
2023-10-08T08:34:51.983Z,1.00
2023-10-08T08:35:25.706Z,1.00
2023-10-08T08:36:02.180Z,1.00
2023-10-08T08:36:34.643Z,1.00
2023-10-08T08:37:41.206Z,1.00
2023-10-08T08:38:13.737Z,1.00
2023-10-08T08:39:42.994Z,1.00
2023-10-08T08:40:26.467Z,1.00
2023-10-08T08:41:13.542Z,1.00
2023-10-08T08:41:46.340Z,1.00
2023-10-08T08:42:21.479Z,1.00
2023-10-08T08:42:54.199Z,1.00
2023-10-08T08:43:27.487Z,1.00
2023-10-08T08:44:00.362Z,1.00
2023-10-08T08:46:16.612Z,1.00
2023-10-08T08:46:50.328Z,1.00
2023-10-08T08:47:26.362Z,1.00
2023-10-08T08:47:58.998Z,1.00
2023-10-08T08:49:09.038Z,1.00
2023-10-08T08:49:44.318Z,1.00
2023-10-08T08:50:19.138Z,1.00
2023-10-08T08:50:51.373Z,1.00
2023-10-08T08:52:02.972Z,1.00
2023-10-08T08:52:39.903Z,1.00
2023-10-08T08:53:13.125Z,1.00
2023-10-08T08:53:47.929Z,1.00
2023-10-08T08:54:56.793Z,1.00
2023-10-08T08:55:33.993Z,1.00
2023-10-08T08:56:40.201Z,1.00
2023-10-08T08:57:51.084Z,1.00
2023-10-08T08:58:57.815Z,1.00
2023-10-08T08:59:31.652Z,1.00
2023-10-08T09:00:11.613Z,1.00
2023-10-08T09:00:48.908Z,1.00
2023-10-08T09:01:27.336Z,1.00
2023-10-08T09:02:03.345Z,1.00
2023-10-08T09:03:14.613Z,1.00
2023-10-08T09:03:52.478Z,1.00
2023-10-08T09:04:39.042Z,1.00
2023-10-08T09:05:32.181Z,1.00
2023-10-08T09:06:06.046Z,1.00
2023-10-08T09:06:41.965Z,1.00
2023-10-08T09:07:24.969Z,1.00
2023-10-08T09:08:06.961Z,1.00
2023-10-08T09:09:25.878Z,1.00
2023-10-08T09:11:06.170Z,1.00
2023-10-08T09:11:46.198Z,1.00
2023-10-08T09:12:23.247Z,1.00
2023-10-08T09:13:02.985Z,1.00
2023-10-08T09:13:37.481Z,1.00
2023-10-08T09:14:12.293Z,1.00
2023-10-08T09:14:47.652Z,1.00
2023-10-08T09:15:24.270Z,1.00
2023-10-08T09:16:08.216Z,1.00
2023-10-08T09:16:42.600Z,1.00
2023-10-08T09:17:16.517Z,1.00
2023-10-08T09:18:06.664Z,1.00
2023-10-08T09:18:42.549Z,1.00
2023-10-08T09:19:48.975Z,1.00
2023-10-08T09:20:21.951Z,1.00
2023-10-08T09:20:54.869Z,1.00
2023-10-08T09:22:12.400Z,1.00
2023-10-08T09:22:46.081Z,1.00
2023-10-08T09:23:25.338Z,1.00
2023-10-08T09:24:31.953Z,1.00
2023-10-08T09:25:09.667Z,1.00
2023-10-08T09:26:23.595Z,1.00
2023-10-08T09:26:57.434Z,1.00
2023-10-08T09:27:32.238Z,1.00
2023-10-08T09:29:31.562Z,1.00
2023-10-08T09:30:10.230Z,1.00
2023-10-08T09:31:38.088Z,1.00
2023-10-08T09:32:51.653Z,1.00
2023-10-08T09:33:25.437Z,1.00
2023-10-08T09:34:38.115Z,1.00
2023-10-08T09:35:16.153Z,1.00
2023-10-08T09:36:33.821Z,1.00
2023-10-08T09:37:13.292Z,1.00
2023-10-08T09:37:49.150Z,1.00
2023-10-08T09:38:25.326Z,1.00
2023-10-08T09:39:01.586Z,1.00
2023-10-08T09:40:12.970Z,1.00
2023-10-08T09:40:53.104Z,1.00
2023-10-08T09:41:33.927Z,1.00
2023-10-08T09:42:15.317Z,1.00
2023-10-08T09:42:47.629Z,1.00
2023-10-08T09:43:53.657Z,1.00
2023-10-08T09:45:11.441Z,1.00
2023-10-08T09:46:08.677Z,1.00
2023-10-08T09:46:54.097Z,1.00
2023-10-08T09:47:31.877Z,1.00
2023-10-08T09:48:05.789Z,1.00
2023-10-08T09:48:42.407Z,1.00
2023-10-08T09:49:18.115Z,1.00
2023-10-08T09:50:09.240Z,1.00
2023-10-08T09:50:46.654Z,1.00
2023-10-08T09:51:19.835Z,1.00